Time;durP1;ratioP1;P1;durP2;ratioP2;P2;SDS_P1;SDS_P2;PMS_P1;PMS_P2;Temp;Humidity;BMP_temperature;BMP_pressure;BME280_temperature;BME280_humidity;BME280_pressure;Samples;Min_cycle;Max_cycle;Signal;HPM_P1;HPM_P2
2023/03/08 00:01:24;;;;;;;37.60;19.80;;;;;;;2.02;62.46;100092.98;107399;1257;111779;-65
2023/03/08 00:03:54;;;;;;;47.70;21.70;;;;;;;2.01;62.63;100091.84;107422;1256;109686;-64
2023/03/08 00:06:24;;;;;;;53.40;21.70;;;;;;;2.01;62.98;100091.82;107429;1255;108758;-66
2023/03/08 00:09:00;;;;;;;43.00;20.10;;;;;;;2.03;63.37;100083.39;107236;1255;97848;-66
2023/03/08 00:11:29;;;;;;;58.40;21.70;;;;;;;2.06;63.21;100078.40;107347;1257;97828;-65
2023/03/08 00:13:58;;;;;;;48.30;19.00;;;;;;;2.10;63.42;100080.67;107425;1256;111403;-66
2023/03/08 00:16:26;;;;;;;46.70;21.90;;;;;;;2.14;63.71;100080.02;107367;1256;109190;-67
2023/03/08 00:18:55;;;;;;;41.40;20.50;;;;;;;2.19;64.12;100079.00;107382;1257;108279;-66
2023/03/08 00:21:23;;;;;;;46.30;20.60;;;;;;;2.25;64.13;100071.58;107372;1255;97903;-65
2023/03/08 00:23:53;;;;;;;40.70;19.80;;;;;;;2.30;64.15;100067.18;107354;1256;98360;-65
2023/03/08 00:26:22;;;;;;;37.80;20.30;;;;;;;2.37;64.14;100070.64;107378;1257;110754;-65
2023/03/08 00:28:51;;;;;;;40.90;22.00;;;;;;;2.43;64.35;100072.84;107336;1255;110173;-65
2023/03/08 00:31:20;;;;;;;50.10;20.10;;;;;;;2.51;64.45;100070.92;107258;1257;108054;-66
2023/03/08 00:33:52;;;;;;;36.80;18.70;;;;;;;2.57;64.37;100062.75;107330;1256;97821;-65
2023/03/08 00:36:21;;;;;;;44.80;19.30;;;;;;;2.63;64.22;100061.81;107356;1257;97838;-65
2023/03/08 00:38:50;;;;;;;46.70;20.10;;;;;;;2.66;64.22;100058.57;107385;1256;112236;-65
2023/03/08 00:41:19;;;;;;;43.20;20.10;;;;;;;2.69;64.11;100054.71;107376;1257;109528;-66
2023/03/08 00:43:48;;;;;;;45.20;20.60;;;;;;;2.68;64.13;100063.07;107363;1259;108505;-65
2023/03/08 00:46:17;;;;;;;51.30;21.30;;;;;;;2.62;64.02;100064.20;107352;1259;97815;-64
2023/03/08 00:48:46;;;;;;;49.20;21.90;;;;;;;2.63;64.18;100057.73;107319;1254;98505;-66
2023/03/08 00:51:17;;;;;;;44.60;22.70;;;;;;;2.65;64.14;100055.48;107441;1256;115464;-67
2023/03/08 00:53:48;;;;;;;47.80;22.10;;;;;;;2.66;64.08;100055.90;107342;1256;109986;-65
2023/03/08 00:56:16;;;;;;;45.80;22.00;;;;;;;2.66;63.89;100054.30;107268;1257;107710;-65
2023/03/08 00:58:45;;;;;;;46.90;22.10;;;;;;;2.65;63.83;100049.79;107360;1255;97900;-65
2023/03/08 01:01:17;;;;;;;45.00;22.80;;;;;;;2.63;63.72;100048.88;107389;1256;97717;-65
2023/03/08 01:03:48;;;;;;;52.50;22.40;;;;;;;2.60;63.84;100042.88;107481;1254;111826;-64
2023/03/08 01:06:17;;;;;;;47.20;23.60;;;;;;;2.57;63.65;100046.44;107325;1257;109409;-65
2023/03/08 01:08:45;;;;;;;47.30;21.60;;;;;;;2.55;63.53;100039.86;107363;1256;108137;-69
2023/03/08 01:11:18;;;;;;;53.00;24.00;;;;;;;2.51;63.50;100038.38;107390;1259;97728;-65
2023/03/08 01:13:48;;;;;;;52.40;23.20;;;;;;;2.44;63.43;100031.71;107368;1257;98017;-65
2023/03/08 01:16:22;;;;;;;65.00;27.30;;;;;;;2.37;63.42;100030.77;107404;1257;111316;-66
2023/03/08 01:18:52;;;;;;;57.80;27.30;;;;;;;2.32;63.63;100030.73;107423;1259;110030;-65
2023/03/08 01:21:21;;;;;;;73.40;30.30;;;;;;;2.29;63.88;100031.66;107289;1255;108718;-68
2023/03/08 01:23:50;;;;;;;71.80;34.90;;;;;;;2.26;63.82;100027.27;107300;1256;97815;-62
2023/03/08 01:26:21;;;;;;;72.70;32.00;;;;;;;2.25;63.81;100026.42;107306;1257;97745;-65
2023/03/08 01:28:50;;;;;;;64.20;31.70;;;;;;;2.24;63.88;100025.46;107378;1259;110224;-64
2023/03/08 01:31:25;;;;;;;67.60;31.70;;;;;;;2.22;64.24;100025.04;107167;1256;109869;-65
2023/03/08 01:33:55;;;;;;;71.40;32.30;;;;;;;2.16;64.29;100021.71;107393;1254;108726;-65
2023/03/08 01:36:25;;;;;;;73.90;33.20;;;;;;;2.12;64.25;100019.44;107357;1254;97754;-64
2023/03/08 01:38:54;;;;;;;73.40;30.90;;;;;;;2.08;64.27;100020.11;107478;1254;98385;-65
2023/03/08 01:41:28;;;;;;;66.30;27.60;;;;;;;2.05;64.34;100016.23;107409;1259;111245;-65
2023/03/08 01:43:57;;;;;;;62.90;29.60;;;;;;;2.01;64.46;100010.80;107317;1257;110220;-65
2023/03/08 01:46:34;;;;;;;61.70;27.60;;;;;;;1.99;64.94;100011.49;107398;1257;107202;-66
2023/03/08 01:49:34;;;;;;;69.20;25.90;;;;;;;1.97;64.89;100013.56;107356;1257;97924;-64
2023/03/08 01:52:34;;;;;;;;;;;;;;;1.97;65.07;100007.56;107482;1254;97976;-65
2023/03/08 01:55:08;;;;;;;57.50;26.10;;;;;;;1.96;65.32;100009.37;107266;1256;111640;-65
2023/03/08 01:57:41;;;;;;;68.60;26.40;;;;;;;1.97;65.46;100006.66;107322;1261;109052;-66
2023/03/08 02:00:13;;;;;;;55.30;22.90;;;;;;;1.98;65.72;99999.52;107195;1256;107081;-65
2023/03/08 02:02:55;;;;;;;52.60;23.40;;;;;;;2.01;65.67;100005.02;107282;1256;97842;-65
2023/03/08 02:05:25;;;;;;;52.40;24.50;;;;;;;2.06;66.13;100003.77;107304;1257;97941;-65
2023/03/08 02:07:58;;;;;;;40.60;21.30;;;;;;;2.11;66.31;100002.77;107359;1255;112112;-65
2023/03/08 02:10:30;;;;;;;43.20;19.50;;;;;;;2.15;66.22;100003.87;107181;1257;109501;-67
2023/03/08 02:12:59;;;;;;;41.50;20.80;;;;;;;2.22;66.40;100005.39;107390;1257;108597;-66
2023/03/08 02:15:27;;;;;;;31.20;17.50;;;;;;;2.29;66.80;100007.08;107269;1254;97743;-65
2023/03/08 02:17:57;;;;;;;39.80;17.60;;;;;;;2.33;67.52;100009.05;107396;1259;97705;-66
2023/03/08 02:20:37;;;;;;;44.10;21.10;;;;;;;2.38;67.23;100008.44;107374;1255;112323;-65
2023/03/08 02:23:21;;;;;;;36.60;18.80;;;;;;;2.44;67.72;100005.88;107353;1257;111180;-67
2023/03/08 02:25:54;;;;;;;15.30;8.80;;;;;;;2.54;68.77;100002.21;107346;1256;109308;-65
2023/03/08 02:28:24;;;;;;;22.90;12.20;;;;;;;2.79;69.69;99995.01;107391;1257;97806;-67
2023/03/08 02:30:54;;;;;;;36.80;16.10;;;;;;;3.01;69.07;99994.23;107357;1257;98344;-66
2023/03/08 02:33:23;;;;;;;24.90;13.30;;;;;;;3.13;68.71;100001.01;107401;1257;111335;-65
2023/03/08 02:35:52;;;;;;;23.50;13.50;;;;;;;3.27;68.87;99992.95;107340;1257;110570;-67
2023/03/08 02:38:21;;;;;;;22.50;13.00;;;;;;;3.35;68.50;99986.94;107253;1257;108204;-67
2023/03/08 02:40:51;;;;;;;24.80;13.30;;;;;;;3.41;67.97;99992.73;107331;1257;97815;-66
2023/03/08 02:43:20;;;;;;;26.50;12.80;;;;;;;3.46;68.06;99991.83;107370;1257;98476;-66
2023/03/08 02:45:50;;;;;;;24.00;11.90;;;;;;;3.51;67.98;99992.37;107352;1255;111129;-65
2023/03/08 02:48:19;;;;;;;22.20;11.00;;;;;;;3.57;68.26;99990.86;107357;1259;110386;-65
2023/03/08 02:50:47;;;;;;;15.10;8.70;;;;;;;3.63;68.04;99991.16;107274;1262;108171;-66
2023/03/08 02:53:15;;;;;;;12.60;7.40;;;;;;;3.74;68.86;99993.39;107370;1257;97944;-66
2023/03/08 02:55:46;;;;;;;11.40;7.20;;;;;;;3.94;68.94;99995.13;107306;1257;99623;-66
2023/03/08 02:58:14;;;;;;;10.30;7.30;;;;;;;4.17;69.19;99990.90;107242;1261;110879;-67
2023/03/08 03:00:44;;;;;;;10.20;6.40;;;;;;;4.39;68.62;99988.74;107339;1255;109657;-66
2023/03/08 03:03:12;;;;;;;13.30;7.10;;;;;;;4.60;68.16;99990.42;107381;1255;108737;-66
2023/03/08 03:05:42;;;;;;;11.40;7.20;;;;;;;4.75;67.88;99985.86;107367;1254;97931;-64
2023/03/08 03:08:13;;;;;;;12.80;6.80;;;;;;;4.94;67.86;99986.20;107315;1257;97923;-67
2023/03/08 03:10:41;;;;;;;12.00;7.40;;;;;;;5.11;67.33;99988.29;107264;1256;111244;-67
2023/03/08 03:13:10;;;;;;;10.20;6.60;;;;;;;5.25;67.04;99982.02;107322;1254;109923;-66
2023/03/08 03:15:39;;;;;;;14.40;7.40;;;;;;;5.40;66.35;99976.91;107459;1254;108290;-66
2023/03/08 03:18:07;;;;;;;13.40;6.90;;;;;;;5.52;65.75;99972.95;107458;1254;97835;-67
2023/03/08 03:20:36;;;;;;;11.20;6.90;;;;;;;5.64;65.31;99970.89;107509;1254;97704;-66
2023/03/08 03:23:05;;;;;;;15.20;7.10;;;;;;;5.75;64.85;99967.89;107325;1254;111487;-65
2023/03/08 03:25:45;;;;;;;13.70;7.10;;;;;;;5.86;64.47;99967.91;107451;1254;109553;-66
2023/03/08 03:28:15;;;;;;;13.30;7.00;;;;;;;5.95;63.92;99967.92;107429;1253;108259;-66
2023/03/08 03:30:44;;;;;;;8.10;6.00;;;;;;;6.04;63.65;99969.69;107311;1254;99489;-66
2023/03/08 03:33:13;;;;;;;16.30;7.20;;;;;;;6.11;63.59;99970.88;107340;1254;97724;-67
2023/03/08 03:35:42;;;;;;;16.50;7.90;;;;;;;6.11;63.06;99974.65;107447;1254;112308;-68
2023/03/08 03:38:11;;;;;;;11.30;5.70;;;;;;;6.12;62.83;99970.98;107341;1254;110049;-66
2023/03/08 03:40:40;;;;;;;11.00;6.40;;;;;;;6.21;62.87;99968.84;107339;1253;107820;-67
2023/03/08 03:43:10;;;;;;;7.50;5.60;;;;;;;6.25;62.70;99968.30;107424;1254;97831;-67
2023/03/08 03:45:39;;;;;;;11.70;6.70;;;;;;;6.26;62.44;99970.18;107498;1254;98350;-68
2023/03/08 03:48:07;;;;;;;15.40;7.80;;;;;;;6.23;62.28;99970.80;107348;1254;112342;-65
2023/03/08 03:50:37;;;;;;;10.90;5.80;;;;;;;6.17;62.39;99971.88;107476;1254;109720;-68
2023/03/08 03:53:10;;;;;;;12.40;6.90;;;;;;;6.09;62.43;99974.96;107499;1254;108007;-66
2023/03/08 03:55:38;;;;;;;16.00;7.10;;;;;;;6.00;62.54;99981.40;107496;1254;97844;-67
2023/03/08 03:58:07;;;;;;;10.60;6.90;;;;;;;5.91;62.52;99989.42;107442;1254;97714;-66
2023/03/08 04:00:36;;;;;;;17.00;7.20;;;;;;;5.85;62.92;99996.52;107381;1254;112281;-66
2023/03/08 04:03:10;;;;;;;12.30;6.30;;;;;;;5.88;62.63;100005.27;107467;1254;109262;-67
2023/03/08 04:05:39;;;;;;;10.40;6.60;;;;;;;5.96;62.82;100005.20;107350;1254;107252;-66
2023/03/08 04:08:07;;;;;;;9.10;5.60;;;;;;;6.07;62.88;100016.27;107460;1254;97818;-65
2023/03/08 04:10:38;;;;;;;14.10;7.20;;;;;;;6.24;62.38;100012.20;107424;1254;97793;-65
2023/03/08 04:13:11;;;;;;;10.30;6.00;;;;;;;6.37;61.96;100007.06;107298;1257;111340;-66
2023/03/08 04:15:39;;;;;;;9.70;5.90;;;;;;;6.48;61.84;100001.52;107279;1257;110011;-65
2023/03/08 04:18:09;;;;;;;11.60;6.10;;;;;;;6.58;61.39;99993.52;107409;1254;107801;-66
2023/03/08 04:20:40;;;;;;;10.50;6.20;;;;;;;6.67;61.13;99986.40;107429;1254;97915;-66
2023/03/08 04:23:09;;;;;;;13.10;6.30;;;;;;;6.71;61.18;99990.50;107373;1254;97911;-66
2023/03/08 04:25:41;;;;;;;15.70;6.40;;;;;;;6.76;61.02;99992.25;107451;1254;111298;-67
2023/03/08 04:28:12;;;;;;;16.60;7.60;;;;;;;6.76;60.83;99994.05;107416;1254;108727;-66
2023/03/08 04:30:41;;;;;;;16.10;7.80;;;;;;;6.73;60.71;99997.26;107438;1254;107055;-68
2023/03/08 04:33:11;;;;;;;16.10;7.40;;;;;;;6.71;60.51;99998.71;107357;1254;97858;-66
2023/03/08 04:35:45;;;;;;;14.90;6.40;;;;;;;6.71;60.18;99990.98;107447;1254;97713;-65
2023/03/08 04:38:15;;;;;;;17.80;8.40;;;;;;;6.70;60.60;99992.38;107326;1254;111292;-65
2023/03/08 04:41:00;;;;;;;20.20;9.70;;;;;;;6.61;60.43;99997.89;107325;1254;109209;-67
2023/03/08 04:43:34;;;;;;;15.90;7.30;;;;;;;6.49;60.56;99996.23;107270;1254;109989;-69
2023/03/08 04:46:04;;;;;;;12.60;7.20;;;;;;;6.38;60.71;100000.02;107454;1253;97820;-64
2023/03/08 04:48:33;;;;;;;12.20;6.70;;;;;;;6.25;60.69;100004.46;107389;1259;97719;-66
2023/03/08 04:51:06;;;;;;;17.40;7.60;;;;;;;6.11;60.94;100008.98;107409;1254;113015;-67
2023/03/08 04:53:35;;;;;;;16.60;6.60;;;;;;;5.99;61.01;100003.89;107428;1254;109647;-66
2023/03/08 04:56:05;;;;;;;14.60;7.10;;;;;;;5.95;61.64;100002.39;107359;1254;108761;-67
2023/03/08 04:58:35;;;;;;;16.10;7.00;;;;;;;5.95;61.42;100004.91;107354;1254;97821;-66
2023/03/08 05:01:15;;;;;;;15.70;8.60;;;;;;;5.88;61.67;100000.84;107296;1259;98385;-65
2023/03/08 05:03:44;;;;;;;14.90;7.60;;;;;;;5.80;61.57;100006.99;107455;1254;111950;-67
2023/03/08 05:06:13;;;;;;;80.60;13.70;;;;;;;5.70;62.09;100006.08;107440;1254;110320;-69
2023/03/08 05:08:42;;;;;;;16.60;8.40;;;;;;;5.61;62.63;100003.21;107424;1254;108073;-67
2023/03/08 05:11:26;;;;;;;18.60;7.80;;;;;;;5.53;62.81;100004.16;107480;1254;97819;-68
2023/03/08 05:13:57;;;;;;;21.00;7.60;;;;;;;5.47;63.25;99996.27;107347;1254;97915;-69
2023/03/08 05:16:27;;;;;;;23.00;7.90;;;;;;;5.43;63.44;99995.33;107479;1254;112558;-66
2023/03/08 05:18:56;;;;;;;28.80;7.50;;;;;;;5.43;63.66;99998.58;107427;1254;108793;-68
2023/03/08 05:21:27;;;;;;;33.10;8.80;;;;;;;5.42;63.59;100006.63;107531;1254;108202;-66
2023/03/08 05:23:59;;;;;;;16.20;8.80;;;;;;;5.42;64.33;100013.23;107404;1254;97838;-66
2023/03/08 05:26:30;;;;;;;18.20;8.60;;;;;;;5.45;64.27;100013.86;107312;1254;98471;-67
2023/03/08 05:29:05;;;;;;;15.00;8.20;;;;;;;5.47;64.25;100008.19;107455;1258;112275;-66
2023/03/08 05:31:35;;;;;;;16.60;7.80;;;;;;;5.50;64.36;100012.63;107292;1259;108753;-65
2023/03/08 05:34:05;;;;;;;23.50;8.70;;;;;;;5.54;64.39;100012.80;107310;1257;107569;-68
2023/03/08 05:36:36;;;;;;;23.10;9.50;;;;;;;5.59;64.68;100018.85;107400;1254;97844;-65
2023/03/08 05:39:07;;;;;;;24.30;9.00;;;;;;;5.64;64.66;100021.27;107490;1254;97915;-66
2023/03/08 05:41:47;;;;;;;25.90;12.60;;;;;;;5.67;64.73;100019.48;107477;1254;112156;-67
2023/03/08 05:44:21;;;;;;;;;;;;;;;5.69;64.74;100024.61;107431;1254;109939;-67
2023/03/08 05:46:50;;;;;;;24.70;7.70;;;;;;;5.75;64.36;100021.63;107433;1254;108545;-67
2023/03/08 05:49:19;;;;;;;24.50;7.80;;;;;;;5.90;64.20;100019.77;107301;1254;97873;-67
2023/03/08 05:51:47;;;;;;;13.40;7.30;;;;;;;6.03;64.02;100014.27;107309;1254;97864;-66
2023/03/08 05:54:17;;;;;;;19.40;6.40;;;;;;;6.17;63.63;100007.44;107450;1254;111985;-66
2023/03/08 05:56:47;;;;;;;22.70;7.80;;;;;;;6.32;63.15;100003.33;107445;1254;109770;-67
2023/03/08 05:59:25;;;;;;;16.70;7.20;;;;;;;6.48;63.22;100006.66;107422;1254;109170;-66
2023/03/08 06:01:56;;;;;;;21.00;8.50;;;;;;;6.59;62.76;100004.69;107344;1254;97856;-65
2023/03/08 06:04:53;;;;;;;30.90;9.60;;;;;;;6.69;62.47;100000.28;107392;1254;97996;-65
2023/03/08 06:07:23;;;;;;;28.70;8.10;;;;;;;6.76;62.30;100002.00;107486;1254;110762;-67
2023/03/08 06:09:56;;;;;;;29.30;8.80;;;;;;;6.85;61.78;99997.89;107370;1256;109816;-65
2023/03/08 06:12:25;;;;;;;29.20;8.00;;;;;;;6.93;61.37;100001.11;107393;1257;107907;-65
2023/03/08 06:14:55;;;;;;;21.60;8.00;;;;;;;7.06;60.79;100002.20;107345;1256;97932;-66
2023/03/08 06:17:26;;;;;;;15.00;8.20;;;;;;;7.20;60.20;99999.70;107301;1257;97834;-61
2023/03/08 06:19:55;;;;;;;23.50;7.50;;;;;;;7.35;59.26;100002.82;107312;1256;111301;-65
2023/03/08 06:22:24;;;;;;;19.80;8.30;;;;;;;7.48;59.55;100007.63;107212;1257;109532;-66
2023/03/08 06:24:53;;;;;;;24.20;8.10;;;;;;;7.59;58.03;100008.05;107444;1254;108323;-65
2023/03/08 06:27:29;;;;;;;14.70;7.30;;;;;;;7.75;57.53;100006.13;107377;1259;97937;-65
2023/03/08 06:29:59;;;;;;;28.30;9.30;;;;;;;7.86;57.21;100002.50;107403;1257;97861;-67
2023/03/08 06:32:30;;;;;;;18.50;7.80;;;;;;;7.96;57.49;100005.90;107361;1257;111753;-64
2023/03/08 06:34:59;;;;;;;19.90;8.00;;;;;;;8.03;57.63;100004.88;107421;1257;109889;-66
2023/03/08 06:37:32;;;;;;;28.10;8.20;;;;;;;8.08;58.19;100007.84;107388;1259;107535;-63
2023/03/08 06:40:02;;;;;;;41.20;13.70;;;;;;;8.13;58.67;100004.52;107304;1257;97828;-64
2023/03/08 06:42:31;;;;;;;17.00;7.90;;;;;;;8.17;58.67;100001.70;107288;1259;98377;-64
2023/03/08 06:45:11;;;;;;;19.20;7.60;;;;;;;8.22;58.59;100009.59;107403;1257;111790;-66
2023/03/08 06:47:40;;;;;;;20.20;7.60;;;;;;;8.29;58.50;100008.29;107374;1256;109745;-65
2023/03/08 06:50:09;;;;;;;36.80;9.20;;;;;;;8.36;58.04;100010.66;107369;1259;107603;-64
2023/03/08 06:52:39;;;;;;;16.40;7.60;;;;;;;8.47;58.01;100013.07;107423;1255;97842;-64
2023/03/08 06:55:09;;;;;;;24.60;8.00;;;;;;;8.59;57.13;100018.76;107384;1257;97822;-64
2023/03/08 06:57:38;;;;;;;34.70;8.90;;;;;;;8.71;57.24;100011.83;107313;1257;111080;-65
2023/03/08 07:00:11;;;;;;;27.10;11.10;;;;;;;8.80;57.23;100009.17;107336;1258;109529;-66
2023/03/08 07:02:39;;;;;;;20.10;6.50;;;;;;;8.88;56.77;100006.45;107349;1257;109230;-66
2023/03/08 07:05:08;;;;;;;15.50;6.20;;;;;;;8.97;54.57;100017.96;107343;1257;97900;-66
2023/03/08 07:07:38;;;;;;;16.90;7.20;;;;;;;9.06;53.91;100030.72;107420;1259;97908;-66
2023/03/08 07:10:09;;;;;;;17.90;7.70;;;;;;;9.16;53.94;100037.31;107349;1259;111590;-65
2023/03/08 07:12:42;;;;;;;19.20;7.50;;;;;;;9.23;53.45;100042.73;107266;1257;109207;-66
2023/03/08 07:15:13;;;;;;;23.80;7.00;;;;;;;9.27;51.64;100054.34;107328;1257;108508;-65
2023/03/08 07:17:42;;;;;;;18.40;8.40;;;;;;;9.37;50.62;100064.30;107348;1257;97821;-63
2023/03/08 07:20:12;;;;;;;22.00;7.50;;;;;;;9.42;51.16;100066.02;107370;1259;98392;-64
2023/03/08 07:22:42;;;;;;;20.30;8.30;;;;;;;9.45;50.40;100068.41;107294;1257;112237;-65
2023/03/08 07:25:16;;;;;;;21.30;7.10;;;;;;;9.50;50.41;100066.33;107334;1257;109836;-65
2023/03/08 07:27:44;;;;;;;;;;;;;;;9.50;50.47;100068.79;107404;1257;108652;-63
2023/03/08 07:30:15;;;;;;;15.50;7.70;;;;;;;9.53;49.90;100076.35;107379;1259;97929;-66
2023/03/08 07:32:43;;;;;;;16.90;7.60;;;;;;;9.55;50.25;100072.08;107379;1257;97823;-65
2023/03/08 07:35:14;;;;;;;16.80;8.40;;;;;;;9.58;50.44;100069.93;107370;1254;111822;-66
2023/03/08 07:37:46;;;;;;;21.20;7.70;;;;;;;9.59;49.87;100076.42;107456;1254;109751;-65
2023/03/08 07:40:16;;;;;;;17.20;8.80;;;;;;;9.60;50.08;100071.66;107368;1257;108617;-65
2023/03/08 07:42:45;;;;;;;14.20;7.30;;;;;;;9.63;50.41;100069.71;107379;1259;97831;-64
2023/03/08 07:45:49;;;;;;;15.60;7.60;;;;;;;9.70;50.18;100072.45;107309;1259;97782;-66
2023/03/08 07:48:18;;;;;;;21.90;7.90;;;;;;;9.77;50.27;100070.55;107461;1259;110218;-64
2023/03/08 07:50:46;;;;;;;15.90;7.80;;;;;;;9.84;49.89;100072.02;107409;1259;109324;-66
2023/03/08 07:53:14;;;;;;;19.80;8.40;;;;;;;9.91;49.49;100071.20;107396;1255;108993;-65
2023/03/08 07:55:43;;;;;;;14.20;7.30;;;;;;;9.98;48.85;100070.02;107425;1255;97693;-66
2023/03/08 07:58:12;;;;;;;17.80;7.70;;;;;;;10.03;48.65;100067.00;107295;1260;97854;-65
2023/03/08 08:00:40;;;;;;;16.50;7.50;;;;;;;10.09;48.41;100057.77;107434;1259;111207;-66
2023/03/08 08:03:09;;;;;;;16.10;7.70;;;;;;;10.15;48.26;100080.35;107440;1260;109661;-65
2023/03/08 08:05:37;;;;;;;26.90;9.30;;;;;;;10.17;48.65;100083.02;107398;1255;107773;-65
2023/03/08 08:08:06;;;;;;;24.20;8.60;;;;;;;10.19;48.83;100085.69;107360;1259;97927;-65
2023/03/08 08:10:34;;;;;;;20.30;8.20;;;;;;;10.23;49.08;100082.81;107476;1254;97912;-64
2023/03/08 08:13:03;;;;;;;23.50;8.30;;;;;;;10.27;49.12;100082.96;107379;1257;111962;-66
2023/03/08 08:15:32;;;;;;;22.50;9.60;;;;;;;10.30;48.98;100078.86;107469;1255;109112;-66
2023/03/08 08:18:00;;;;;;;23.20;9.50;;;;;;;10.34;49.22;100077.88;107418;1260;107707;-66
2023/03/08 08:20:28;;;;;;;28.30;10.30;;;;;;;10.40;49.40;100078.23;107420;1259;97913;-66
2023/03/08 08:22:57;;;;;;;34.60;10.40;;;;;;;10.45;49.33;100075.79;107418;1260;97211;-67
2023/03/08 08:25:25;;;;;;;28.20;8.90;;;;;;;10.49;49.23;100069.82;107442;1260;111658;-66
2023/03/08 08:27:54;;;;;;;26.90;9.20;;;;;;;10.54;49.13;100070.97;107397;1254;108776;-63
2023/03/08 08:30:22;;;;;;;26.50;9.40;;;;;;;10.59;48.65;100071.92;107420;1259;108150;-64
2023/03/08 08:32:51;;;;;;;31.70;9.50;;;;;;;10.62;48.81;100073.70;107427;1259;97916;-66
2023/03/08 08:35:19;;;;;;;24.60;9.60;;;;;;;10.68;48.69;100074.96;107506;1258;97809;-66
2023/03/08 08:37:48;;;;;;;31.60;9.20;;;;;;;10.75;48.14;100071.54;107393;1254;112971;-66
2023/03/08 08:40:17;;;;;;;21.20;8.80;;;;;;;10.82;48.31;100070.12;107405;1259;110364;-64
2023/03/08 08:42:45;;;;;;;28.00;9.20;;;;;;;10.89;48.16;100061.16;107376;1260;106997;-66
2023/03/08 08:45:13;;;;;;;18.50;9.30;;;;;;;10.98;48.34;100055.44;107368;1254;97819;-64
2023/03/08 08:47:41;;;;;;;26.90;9.80;;;;;;;11.07;48.08;100054.54;107384;1255;98438;-65
2023/03/08 08:50:10;;;;;;;33.40;10.30;;;;;;;11.16;47.66;100056.48;107363;1254;111745;-66
2023/03/08 08:52:41;;;;;;;18.50;9.60;;;;;;;11.26;46.56;100054.80;107392;1254;110902;-65
2023/03/08 08:55:09;;;;;;;23.10;8.90;;;;;;;11.32;46.55;100055.78;107399;1254;107625;-64
2023/03/08 08:57:37;;;;;;;23.10;9.50;;;;;;;11.38;46.29;100056.59;107380;1257;97902;-64
2023/03/08 09:00:08;;;;;;;22.90;9.30;;;;;;;11.46;45.88;100054.04;107413;1254;98361;-65
2023/03/08 09:02:36;;;;;;;24.50;8.60;;;;;;;11.49;46.26;100054.36;107317;1254;112250;-66
2023/03/08 09:05:06;;;;;;;20.20;8.80;;;;;;;11.58;46.21;100052.22;107339;1254;109892;-63
2023/03/08 09:07:34;;;;;;;18.20;8.90;;;;;;;11.64;45.91;100049.55;107331;1254;108716;-65
2023/03/08 09:10:06;;;;;;;23.50;9.60;;;;;;;11.71;45.64;100049.02;107257;1260;97869;-64
2023/03/08 09:12:35;;;;;;;18.40;8.50;;;;;;;11.81;45.26;100050.58;107457;1254;98418;-66
2023/03/08 09:15:05;;;;;;;30.70;9.40;;;;;;;11.86;44.89;100053.25;107399;1254;112328;-65
2023/03/08 09:17:33;;;;;;;25.00;9.10;;;;;;;11.94;45.02;100052.78;107351;1254;110541;-65
2023/03/08 09:20:04;;;;;;;23.70;9.40;;;;;;;12.03;45.08;100048.81;107433;1257;108215;-65
2023/03/08 09:22:33;;;;;;;20.90;9.70;;;;;;;12.13;44.31;100045.02;107456;1258;97822;-65
2023/03/08 09:25:01;;;;;;;29.50;11.40;;;;;;;12.22;44.47;100047.52;107414;1254;97825;-65
2023/03/08 09:27:30;;;;;;;29.80;9.00;;;;;;;12.31;44.74;100048.27;107431;1259;113197;-65
2023/03/08 09:29:58;;;;;;;40.80;9.60;;;;;;;12.42;44.93;100050.24;107402;1254;108853;-65
2023/03/08 09:32:27;;;;;;;22.80;10.00;;;;;;;12.54;44.60;100045.88;107409;1258;108763;-66
2023/03/08 09:34:56;;;;;;;37.20;10.20;;;;;;;12.64;43.85;100042.64;107423;1254;97912;-66
2023/03/08 09:37:25;;;;;;;26.70;9.50;;;;;;;12.72;43.83;100039.66;107436;1254;97879;-64
2023/03/08 09:39:54;;;;;;;26.10;8.90;;;;;;;12.80;44.19;100035.46;107355;1254;112090;-66
2023/03/08 09:42:32;;;;;;;32.50;9.30;;;;;;;12.91;43.79;100029.83;107375;1257;109814;-64
2023/03/08 09:45:03;;;;;;;22.70;9.40;;;;;;;12.99;43.25;100023.71;107362;1254;107176;-66
2023/03/08 09:47:53;;;;;;;;;;;;;;;13.07;42.24;100020.09;107403;1254;97863;-65
2023/03/08 09:50:32;;;;;;;18.00;7.20;;;;;;;13.14;42.17;100014.84;107377;1258;97844;-66
2023/03/08 09:53:30;;;;;;;14.60;8.10;;;;;;;13.22;41.76;100011.13;106856;1257;522938;-65
2023/03/08 09:56:13;;;;;;;17.30;7.40;;;;;;;13.26;41.45;100006.83;107225;1260;110170;-65
2023/03/08 09:58:48;;;;;;;13.30;7.10;;;;;;;13.32;41.50;99994.23;107391;1255;107867;-66
2023/03/08 10:01:40;;;;;;;19.20;8.00;;;;;;;13.38;41.86;99994.38;107380;1256;97838;-65
2023/03/08 10:04:53;;;;;;;28.40;7.70;;;;;;;13.46;41.51;100008.08;107343;1258;97729;-67
2023/03/08 10:07:48;;;;;;;20.40;7.80;;;;;;;13.62;41.05;100004.83;107379;1257;112135;-62
2023/03/08 10:10:41;;;;;;;24.10;7.40;;;;;;;13.79;40.36;100008.11;107396;1254;109854;-65
2023/03/08 10:13:42;;;;;;;46.60;8.40;;;;;;;13.99;40.40;100008.33;107375;1254;108311;-65
2023/03/08 10:16:22;;;;;;;33.80;13.60;;;;;;;14.26;39.24;100006.64;107361;1260;97824;-65
2023/03/08 10:19:42;;;;;;;27.80;7.10;;;;;;;14.41;39.81;100001.34;107383;1254;98357;-67
2023/03/08 10:22:24;;;;;;;19.50;7.10;;;;;;;14.62;39.50;99996.96;106958;1260;115505;-64
2023/03/08 10:25:00;;;;;;;16.90;7.30;;;;;;;14.90;38.90;99998.29;107322;1260;110183;-64
2023/03/08 10:27:33;;;;;;;13.90;7.00;;;;;;;15.19;38.59;99994.17;107209;1254;108374;-65
2023/03/08 10:30:27;;;;;;;17.90;7.40;;;;;;;15.34;38.88;99986.93;107375;1260;97733;-65
2023/03/08 10:32:58;;;;;;;21.30;6.90;;;;;;;15.46;38.52;99988.65;107442;1254;97714;-66
2023/03/08 10:35:53;;;;;;;17.00;5.60;;;;;;;15.52;37.66;99984.95;107480;1255;111288;-65
2023/03/08 10:38:24;;;;;;;10.80;4.40;;;;;;;15.46;36.57;99987.52;107332;1257;110181;-67
2023/03/08 10:41:06;;;;;;;9.80;3.40;;;;;;;15.45;36.17;99985.17;107429;1257;108136;-66
2023/03/08 10:43:46;;;;;;;10.80;3.20;;;;;;;15.45;35.40;99986.50;107391;1254;97840;-66
2023/03/08 10:46:27;;;;;;;19.70;3.80;;;;;;;15.40;35.59;99984.89;107315;1258;99550;-65
2023/03/08 10:49:09;;;;;;;15.50;4.00;;;;;;;15.36;35.65;99980.92;107200;1258;110785;-64
2023/03/08 10:51:37;;;;;;;9.60;3.70;;;;;;;15.38;34.98;99982.52;107347;1254;109211;-65
2023/03/08 10:54:14;;;;;;;15.20;3.40;;;;;;;15.36;34.93;99982.36;107389;1256;108232;-66
2023/03/08 10:56:53;;;;;;;9.80;3.60;;;;;;;15.32;34.84;99977.27;107230;1256;97829;-68
2023/03/08 10:59:31;;;;;;;12.20;3.10;;;;;;;15.31;35.42;99974.94;107167;1257;98347;-66
2023/03/08 11:02:17;;;;;;;11.40;3.80;;;;;;;15.34;34.90;99968.48;107332;1257;111469;-65
2023/03/08 11:05:19;;;;;;;11.20;3.50;;;;;;;15.41;34.84;99972.48;107325;1254;109315;-67
2023/03/08 11:07:57;;;;;;;11.70;3.30;;;;;;;15.36;34.42;99966.42;107414;1254;107555;-66
2023/03/08 11:11:23;;;;;;;10.10;3.40;;;;;;;15.51;34.49;99965.77;107363;1257;97812;-69
2023/03/08 11:13:56;;;;;;;17.80;3.40;;;;;;;15.69;34.01;99972.17;107421;1254;97822;-66
2023/03/08 11:16:48;;;;;;;7.80;3.30;;;;;;;16.15;33.48;99965.05;107330;1254;111580;-66
2023/03/08 11:19:31;;;;;;;11.30;3.20;;;;;;;16.77;32.24;99960.02;107402;1254;109205;-66
2023/03/08 11:22:14;;;;;;;5.10;2.80;;;;;;;17.45;30.92;99954.08;107406;1256;108290;-67
2023/03/08 11:24:58;;;;;;;10.80;3.30;;;;;;;18.35;30.51;99956.52;107391;1254;97868;-66
2023/03/08 11:27:26;;;;;;;15.80;2.50;;;;;;;18.73;29.43;99956.63;107427;1257;97833;-65
2023/03/08 11:30:01;;;;;;;10.10;2.80;;;;;;;19.16;29.33;99948.68;107411;1254;111932;-65
2023/03/08 11:32:58;;;;;;;11.90;4.50;;;;;;;19.70;28.29;99940.11;107456;1254;108646;-66
2023/03/08 11:35:39;;;;;;;13.00;2.80;;;;;;;20.44;27.92;99938.05;107470;1254;107351;-66
2023/03/08 11:38:22;;;;;;;22.00;3.50;;;;;;;20.86;26.93;99939.41;107434;1258;97810;-66